Dirección General De Aeronáutica Civil

Dirección Meteorológica de Chile - Servicios Climáticos

Informe General de Control de Calidad de la Estación

Listado de niveles de control de calidad para algunos parámetros
Estación San Rafael (350082)
Fecha de Revisión de los datos :

Elementos

Registros Niveles de Control Total
Nivel 0 Nivel 1 Nivel 2 Nivel 3 Errores Porcentaje
01 Temperatura del Aire Seco 126.402 0 . 287 0.23 % 0 . 0 . 287 0.23 %
02 Temperatura de Rocío 126.394 0 . 0 . 0 . 0 . 0 0.00 %
03 Humedad Relativa del Aire 126.429 0 . 0 . 0 . 0 . 0 0.00 %
04 Temperatura Máxima PM 1.292 0 . 0 . 1 0.08 % 0 . 1 0.08 %
05 Temperatura Mínima AM 1.269 0 . 0 . 0 . 0 . 0 0.00 %
06 Agua Caida, Acumulada 6 Horas 22.093 0 . 0 . 0 . 0 . 0 0.00 %
07 Presión Atm. a Nivel de Estación (QFE) 77.247 0 . 0 . 0 . 0 . 0 0.00 %
08 Presión Atm. a Nivel Medio del Mar (QFF) 76.824 0 . 0 . 0 . 0 . 0 0.00 %
09 Presión Atm. Estándar OACI (QNH) 29.159 0 . 0 . 0 . 0 . 0 0.00 %

Totales

587.109 . 0.0000 % . 0.0489 % . 0.0002 % . 0.0000 % 288 0.0491 %

Detalle de Errores Recientes

Fecha del Dato Descripción Información Error Fecha Ingreso
2024-06-08 00:00:00 Temperatura 17.2 del 07-06-2024 15:00, Mayor que la Máxima 15.8 08-06-2024 00:00 17.2 -- 15.8 2024-06-08 01:01:00
Total de Errores Recientes 1

Detalle de Errores Encontrados

Nivel Fecha del Dato Descripción Información Error Fecha Ingreso
1 2016-05-10 08:00:00 Ts debe ser mayor o igual a Td Ts=8.4 - Td=8.5 2023-11-18 20:56:00
1 2016-05-13 08:00:00 Ts debe ser mayor o igual a Td Ts=8.7 - Td=8.8 2023-11-18 20:57:00
1 2016-05-13 10:00:00 Ts debe ser mayor o igual a Td Ts=11.5 - Td=11.6 2023-11-18 20:57:00
1 2016-05-13 13:00:00 Ts debe ser mayor o igual a Td Ts=11.7 - Td=11.8 2023-11-18 20:57:00
1 2016-05-13 16:00:00 Ts debe ser mayor o igual a Td Ts=12.3 - Td=12.4 2023-11-18 20:57:00
1 2016-05-13 17:00:00 Ts debe ser mayor o igual a Td Ts=12.4 - Td=12.5 2023-11-18 20:57:00
1 2016-05-14 06:00:00 Ts debe ser mayor o igual a Td Ts=10.3 - Td=10.4 2023-11-18 20:57:00
1 2016-05-14 10:00:00 Ts debe ser mayor o igual a Td Ts=10.3 - Td=10.4 2023-11-18 20:57:00
1 2016-05-14 13:00:00 Ts debe ser mayor o igual a Td Ts=11.6 - Td=11.7 2023-11-18 20:57:00
1 2016-05-16 08:00:00 Ts debe ser mayor o igual a Td Ts=7.4 - Td=7.5 2023-11-18 20:57:00
1 2016-05-17 06:00:00 Ts debe ser mayor o igual a Td Ts=7.1 - Td=7.2 2023-11-18 20:57:00
1 2016-05-17 10:00:00 Ts debe ser mayor o igual a Td Ts=8.2 - Td=8.3 2023-11-18 20:57:00
1 2016-05-18 02:00:00 Ts debe ser mayor o igual a Td Ts=7.6 - Td=7.7 2023-11-18 20:57:00
1 2016-05-18 12:00:00 Ts debe ser mayor o igual a Td Ts=10.6 - Td=10.7 2023-11-18 20:57:00
1 2016-05-20 09:00:00 Ts debe ser mayor o igual a Td Ts=11.6 - Td=11.7 2023-11-18 20:57:00
1 2016-05-21 03:00:00 Ts debe ser mayor o igual a Td Ts=10.3 - Td=10.4 2023-11-18 20:57:00
1 2016-05-21 07:00:00 Ts debe ser mayor o igual a Td Ts=8.5 - Td=8.6 2023-11-18 20:57:00
1 2016-05-22 11:00:00 Ts debe ser mayor o igual a Td Ts=7.0 - Td=7.1 2023-11-18 20:57:00
1 2016-05-22 15:00:00 Ts debe ser mayor o igual a Td Ts=8.8 - Td=8.9 2023-11-18 20:57:00
1 2016-05-22 16:00:00 Ts debe ser mayor o igual a Td Ts=9.0 - Td=9.1 2023-11-18 20:57:00
1 2016-05-23 01:00:00 Ts debe ser mayor o igual a Td Ts=7.1 - Td=7.2 2023-11-18 20:57:00
1 2016-05-23 10:00:00 Ts debe ser mayor o igual a Td Ts=7.7 - Td=7.8 2023-11-18 20:57:00
1 2016-05-23 13:00:00 Ts debe ser mayor o igual a Td Ts=8.6 - Td=8.7 2023-11-18 20:57:00
1 2016-05-26 10:00:00 Ts debe ser mayor o igual a Td Ts=10.4 - Td=10.5 2023-11-18 20:57:00
1 2016-05-26 14:00:00 Ts debe ser mayor o igual a Td Ts=11.7 - Td=11.8 2023-11-18 20:57:00
1 2016-05-28 06:00:00 Ts debe ser mayor o igual a Td Ts=7.7 - Td=7.8 2023-11-18 20:57:00
1 2016-05-28 07:00:00 Ts debe ser mayor o igual a Td Ts=8.2 - Td=8.3 2023-11-18 20:57:00
1 2016-05-28 08:00:00 Ts debe ser mayor o igual a Td Ts=8.6 - Td=8.7 2023-11-18 20:57:00
1 2016-05-29 12:00:00 Ts debe ser mayor o igual a Td Ts=9.3 - Td=9.4 2023-11-18 20:57:00
1 2016-05-29 13:00:00 Ts debe ser mayor o igual a Td Ts=10.4 - Td=10.5 2023-11-18 20:57:00
1 2016-05-30 10:00:00 Ts debe ser mayor o igual a Td Ts=9.0 - Td=9.1 2023-11-18 20:57:00
1 2016-05-30 13:00:00 Ts debe ser mayor o igual a Td Ts=7.1 - Td=7.2 2023-11-18 20:57:00
1 2016-05-31 08:00:00 Ts debe ser mayor o igual a Td Ts=8.6 - Td=8.7 2023-11-18 20:57:00
1 2016-05-31 09:00:00 Ts debe ser mayor o igual a Td Ts=8.5 - Td=8.6 2023-11-18 20:57:00
1 2016-06-02 17:00:00 Ts debe ser mayor o igual a Td Ts=7.5 - Td=7.6 2023-11-18 20:57:00
1 2016-06-04 11:00:00 Ts debe ser mayor o igual a Td Ts=7.5 - Td=7.6 2023-11-18 20:57:00
1 2016-06-04 12:00:00 Ts debe ser mayor o igual a Td Ts=7.5 - Td=7.6 2023-11-18 20:57:00
1 2016-06-10 15:00:00 Ts debe ser mayor o igual a Td Ts=4.8 - Td=4.9 2023-11-18 20:57:00
1 2016-06-12 07:00:00 Ts debe ser mayor o igual a Td Ts=5.7 - Td=5.8 2023-11-18 20:57:00
1 2016-06-12 08:00:00 Ts debe ser mayor o igual a Td Ts=5.6 - Td=5.7 2023-11-18 20:57:00
1 2016-06-13 00:00:00 Ts debe ser mayor o igual a Td Ts=8.5 - Td=8.6 2023-11-18 20:57:00
1 2016-06-13 01:00:00 Ts debe ser mayor o igual a Td Ts=8.4 - Td=8.5 2023-11-18 20:57:00
1 2016-06-13 23:00:00 Ts debe ser mayor o igual a Td Ts=7.8 - Td=7.9 2023-11-18 20:57:00
1 2016-06-14 00:00:00 Ts debe ser mayor o igual a Td Ts=7.2 - Td=7.3 2023-11-18 20:57:00
1 2016-06-14 04:00:00 Ts debe ser mayor o igual a Td Ts=7.0 - Td=7.1 2023-11-18 20:57:00
1 2016-06-14 05:00:00 Ts debe ser mayor o igual a Td Ts=7.3 - Td=7.4 2023-11-18 20:57:00
1 2016-06-14 06:00:00 Ts debe ser mayor o igual a Td Ts=7.1 - Td=7.2 2023-11-18 20:57:00
1 2016-06-14 14:00:00 Ts debe ser mayor o igual a Td Ts=7.1 - Td=7.2 2023-11-18 20:57:00
1 2016-06-18 17:00:00 Ts debe ser mayor o igual a Td Ts=5.6 - Td=5.7 2023-11-18 20:57:00
1 2016-06-23 18:00:00 Ts debe ser mayor o igual a Td Ts=7.4 - Td=7.5 2023-11-18 20:57:00
1 2016-06-23 23:00:00 Ts debe ser mayor o igual a Td Ts=7.2 - Td=7.3 2023-11-18 20:57:00
1 2016-06-24 04:00:00 Ts debe ser mayor o igual a Td Ts=7.5 - Td=7.6 2023-11-18 20:57:00
1 2016-06-27 19:00:00 Ts debe ser mayor o igual a Td Ts=8.6 - Td=8.7 2023-11-18 20:57:00
1 2016-06-29 00:00:00 Ts debe ser mayor o igual a Td Ts=4.8 - Td=4.9 2023-11-18 20:57:00
1 2016-06-29 13:00:00 Ts debe ser mayor o igual a Td Ts=8.2 - Td=8.3 2023-11-18 20:57:00
1 2016-06-30 10:00:00 Ts debe ser mayor o igual a Td Ts=7.3 - Td=7.4 2023-11-18 20:57:00
1 2016-07-12 17:00:00 Ts debe ser mayor o igual a Td Ts=7.1 - Td=7.2 2023-11-18 20:57:00
1 2016-07-12 22:00:00 Ts debe ser mayor o igual a Td Ts=6.9 - Td=7.0 2023-11-18 20:57:00
1 2016-07-18 17:00:00 Ts debe ser mayor o igual a Td Ts=8.1 - Td=8.2 2023-11-18 20:58:00
1 2016-07-19 11:00:00 Ts debe ser mayor o igual a Td Ts=8.4 - Td=8.5 2023-11-18 20:58:00
1 2016-07-20 08:00:00 Ts debe ser mayor o igual a Td Ts=7.2 - Td=7.3 2023-11-18 20:58:00
1 2016-07-21 11:00:00 Ts debe ser mayor o igual a Td Ts=7.0 - Td=7.1 2023-11-18 20:58:00
1 2016-07-21 12:00:00 Ts debe ser mayor o igual a Td Ts=8.4 - Td=8.5 2023-11-18 20:58:00
1 2016-07-21 14:00:00 Ts debe ser mayor o igual a Td Ts=9.4 - Td=9.5 2023-11-18 20:58:00
1 2016-07-22 01:00:00 Ts debe ser mayor o igual a Td Ts=8.7 - Td=8.8 2023-11-18 20:58:00
1 2016-07-22 07:00:00 Ts debe ser mayor o igual a Td Ts=8.7 - Td=8.8 2023-11-18 20:58:00
1 2016-07-22 14:00:00 Ts debe ser mayor o igual a Td Ts=10.3 - Td=10.4 2023-11-18 20:58:00
1 2016-07-27 06:00:00 Ts debe ser mayor o igual a Td Ts=4.8 - Td=4.9 2023-11-18 20:58:00
1 2016-07-27 13:00:00 Ts debe ser mayor o igual a Td Ts=5.6 - Td=5.7 2023-11-18 20:58:00
1 2016-07-30 04:00:00 Ts debe ser mayor o igual a Td Ts=6.9 - Td=7.0 2023-11-18 20:58:00
1 2016-07-30 05:00:00 Ts debe ser mayor o igual a Td Ts=7.4 - Td=7.5 2023-11-18 20:58:00
1 2016-07-31 07:00:00 Ts debe ser mayor o igual a Td Ts=7.6 - Td=7.7 2023-11-18 20:58:00
1 2016-07-31 11:00:00 Ts debe ser mayor o igual a Td Ts=7.5 - Td=7.6 2023-11-18 20:58:00
1 2016-08-01 16:00:00 Ts debe ser mayor o igual a Td Ts=8.1 - Td=8.2 2023-11-18 20:58:00
1 2016-08-03 05:00:00 Ts debe ser mayor o igual a Td Ts=5.7 - Td=5.8 2023-11-18 20:58:00
1 2016-08-03 09:00:00 Ts debe ser mayor o igual a Td Ts=4.8 - Td=4.9 2023-11-18 20:58:00
1 2016-08-04 13:00:00 Ts debe ser mayor o igual a Td Ts=7.6 - Td=7.7 2023-11-18 20:58:00
1 2016-08-15 09:00:00 Ts debe ser mayor o igual a Td Ts=11.7 - Td=11.8 2023-11-18 20:58:00
1 2016-09-13 11:00:00 Ts debe ser mayor o igual a Td Ts=7.8 - Td=7.9 2023-11-18 20:58:00
1 2017-04-21 12:00:00 Ts debe ser mayor o igual a Td Ts=9.2 - Td=9.3 2023-11-18 21:03:00
1 2017-06-01 18:00:00 Ts debe ser mayor o igual a Td Ts=8.1 - Td=8.2 2023-11-18 21:04:00
1 2017-06-01 19:00:00 Ts debe ser mayor o igual a Td Ts=8.2 - Td=8.3 2023-11-18 21:04:00
1 2017-06-01 21:00:00 Ts debe ser mayor o igual a Td Ts=9.0 - Td=9.1 2023-11-18 21:04:00
1 2017-06-01 22:00:00 Ts debe ser mayor o igual a Td Ts=8.5 - Td=8.6 2023-11-18 21:04:00
1 2017-06-02 05:00:00 Ts debe ser mayor o igual a Td Ts=8.2 - Td=8.3 2023-11-18 21:04:00
1 2017-06-02 08:00:00 Ts debe ser mayor o igual a Td Ts=7.5 - Td=7.6 2023-11-18 21:04:00
1 2017-06-02 09:00:00 Ts debe ser mayor o igual a Td Ts=7.2 - Td=7.3 2023-11-18 21:04:00
1 2017-06-03 08:00:00 Ts debe ser mayor o igual a Td Ts=6.9 - Td=7.0 2023-11-18 21:04:00
1 2017-06-08 04:00:00 Ts debe ser mayor o igual a Td Ts=4.8 - Td=4.9 2023-11-18 21:04:00
1 2017-06-23 05:00:00 Ts debe ser mayor o igual a Td Ts=10.3 - Td=10.4 2023-11-18 21:04:00
1 2017-06-24 04:00:00 Ts debe ser mayor o igual a Td Ts=9.1 - Td=9.2 2023-11-18 21:04:00
1 2017-06-24 07:00:00 Ts debe ser mayor o igual a Td Ts=9.3 - Td=9.4 2023-11-18 21:04:00
1 2017-06-24 08:00:00 Ts debe ser mayor o igual a Td Ts=9.1 - Td=9.2 2023-11-18 21:04:00
1 2017-06-25 07:00:00 Ts debe ser mayor o igual a Td Ts=10.7 - Td=10.8 2023-11-18 21:04:00
1 2017-06-25 08:00:00 Ts debe ser mayor o igual a Td Ts=10.8 - Td=10.9 2023-11-18 21:04:00
1 2017-06-25 11:00:00 Ts debe ser mayor o igual a Td Ts=11.7 - Td=11.8 2023-11-18 21:04:00
1 2017-06-25 13:00:00 Ts debe ser mayor o igual a Td Ts=10.8 - Td=10.9 2023-11-18 21:04:00
1 2017-06-25 16:00:00 Ts debe ser mayor o igual a Td Ts=12.3 - Td=12.4 2023-11-18 21:04:00
1 2017-06-25 17:00:00 Ts debe ser mayor o igual a Td Ts=12.5 - Td=12.6 2023-11-18 21:04:00
1 2017-06-25 20:00:00 Ts debe ser mayor o igual a Td Ts=12.4 - Td=12.5 2023-11-18 21:04:00
1 2017-06-28 11:00:00 Ts debe ser mayor o igual a Td Ts=8.2 - Td=8.3 2023-11-18 21:04:00
1 2017-06-30 13:00:00 Ts debe ser mayor o igual a Td Ts=8.3 - Td=8.4 2023-11-18 21:04:00
1 2017-06-30 14:00:00 Ts debe ser mayor o igual a Td Ts=8.6 - Td=8.7 2023-11-18 21:04:00
1 2017-07-02 14:00:00 Ts debe ser mayor o igual a Td Ts=8.1 - Td=8.2 2023-11-18 21:05:00
1 2017-07-08 14:00:00 Ts debe ser mayor o igual a Td Ts=9.0 - Td=9.1 2023-11-18 21:05:00
1 2017-07-21 11:00:00 Ts debe ser mayor o igual a Td Ts=7.0 - Td=7.1 2023-11-18 21:05:00
1 2017-07-21 13:00:00 Ts debe ser mayor o igual a Td Ts=7.1 - Td=7.2 2023-11-18 21:05:00
1 2017-07-21 14:00:00 Ts debe ser mayor o igual a Td Ts=7.3 - Td=7.4 2023-11-18 21:05:00
1 2017-07-21 15:00:00 Ts debe ser mayor o igual a Td Ts=7.6 - Td=7.7 2023-11-18 21:05:00
1 2017-08-06 13:00:00 Ts debe ser mayor o igual a Td Ts=7.7 - Td=7.8 2023-11-18 21:05:00
1 2017-08-12 15:00:00 Ts debe ser mayor o igual a Td Ts=5.6 - Td=5.7 2023-11-18 21:06:00
1 2017-08-15 12:00:00 Ts debe ser mayor o igual a Td Ts=5.6 - Td=5.7 2023-11-18 21:06:00
1 2017-08-19 00:00:00 Ts debe ser mayor o igual a Td Ts=8.9 - Td=9.0 2023-11-18 21:06:00
1 2017-08-19 03:00:00 Ts debe ser mayor o igual a Td Ts=7.5 - Td=7.6 2023-11-18 21:06:00
1 2017-08-19 14:00:00 Ts debe ser mayor o igual a Td Ts=7.4 - Td=7.5 2023-11-18 21:06:00
1 2017-09-02 11:00:00 Ts debe ser mayor o igual a Td Ts=7.2 - Td=7.3 2023-11-18 21:06:00
1 2017-09-18 12:00:00 Ts debe ser mayor o igual a Td Ts=9.1 - Td=9.2 2023-11-18 21:06:00
1 2017-09-20 12:00:00 Ts debe ser mayor o igual a Td Ts=8.6 - Td=8.7 2023-11-18 21:06:00
1 2018-05-30 17:00:00 Ts debe ser mayor o igual a Td Ts=9.1 - Td=9.2 2023-11-18 21:13:00
1 2018-06-02 19:00:00 Ts debe ser mayor o igual a Td Ts=7.1 - Td=7.2 2023-11-18 21:13:00
1 2018-06-06 11:00:00 Ts debe ser mayor o igual a Td Ts=7.0 - Td=7.1 2023-11-18 21:13:00
1 2018-06-06 12:00:00 Ts debe ser mayor o igual a Td Ts=7.1 - Td=7.2 2023-11-18 21:13:00
1 2018-06-06 14:00:00 Ts debe ser mayor o igual a Td Ts=7.0 - Td=7.1 2023-11-18 21:13:00
1 2018-06-18 17:00:00 Ts debe ser mayor o igual a Td Ts=7.5 - Td=7.6 2023-11-18 21:13:00
1 2018-06-19 11:00:00 Ts debe ser mayor o igual a Td Ts=4.8 - Td=4.9 2023-11-18 21:13:00
1 2018-06-19 14:00:00 Ts debe ser mayor o igual a Td Ts=5.6 - Td=5.7 2023-11-18 21:13:00
1 2018-06-19 18:00:00 Ts debe ser mayor o igual a Td Ts=7.6 - Td=7.7 2023-11-18 21:13:00
1 2018-06-20 02:00:00 Ts debe ser mayor o igual a Td Ts=7.6 - Td=7.7 2023-11-18 21:13:00
1 2018-06-20 04:00:00 Ts debe ser mayor o igual a Td Ts=7.6 - Td=7.7 2023-11-18 21:13:00
1 2018-06-20 07:00:00 Ts debe ser mayor o igual a Td Ts=7.4 - Td=7.5 2023-11-18 21:13:00
1 2018-06-20 10:00:00 Ts debe ser mayor o igual a Td Ts=7.4 - Td=7.5 2023-11-18 21:13:00
1 2018-06-20 14:00:00 Ts debe ser mayor o igual a Td Ts=7.5 - Td=7.6 2023-11-18 21:13:00
1 2018-06-20 15:00:00 Ts debe ser mayor o igual a Td Ts=8.1 - Td=8.2 2023-11-18 21:13:00
1 2018-06-20 16:00:00 Ts debe ser mayor o igual a Td Ts=8.4 - Td=8.5 2023-11-18 21:13:00
1 2018-06-20 22:00:00 Ts debe ser mayor o igual a Td Ts=7.0 - Td=7.1 2023-11-18 21:13:00
1 2018-06-28 12:00:00 Ts debe ser mayor o igual a Td Ts=9.1 - Td=9.2 2023-11-18 21:13:00
1 2018-06-29 08:00:00 Ts debe ser mayor o igual a Td Ts=5.7 - Td=5.8 2023-11-18 21:13:00
1 2018-06-29 10:00:00 Ts debe ser mayor o igual a Td Ts=5.6 - Td=5.7 2023-11-18 21:13:00
1 2018-06-29 12:00:00 Ts debe ser mayor o igual a Td Ts=7.2 - Td=7.3 2023-11-18 21:13:00
1 2018-06-30 12:00:00 Ts debe ser mayor o igual a Td Ts=8.1 - Td=8.2 2023-11-18 21:14:00
1 2018-06-30 14:00:00 Ts debe ser mayor o igual a Td Ts=8.8 - Td=8.9 2023-11-18 21:14:00
1 2018-06-30 16:00:00 Ts debe ser mayor o igual a Td Ts=10.5 - Td=10.6 2023-11-18 21:14:00
1 2018-08-06 11:00:00 Ts debe ser mayor o igual a Td Ts=5.6 - Td=5.7 2023-11-18 21:14:00
1 2018-08-07 08:00:00 Ts debe ser mayor o igual a Td Ts=8.4 - Td=8.5 2023-11-18 21:14:00
1 2018-08-07 09:00:00 Ts debe ser mayor o igual a Td Ts=8.4 - Td=8.5 2023-11-18 21:14:00
1 2018-08-07 13:00:00 Ts debe ser mayor o igual a Td Ts=8.4 - Td=8.5 2023-11-18 21:14:00
1 2018-08-18 08:00:00 Ts debe ser mayor o igual a Td Ts=8.4 - Td=8.5 2023-11-18 21:14:00
1 2018-08-31 13:00:00 Ts debe ser mayor o igual a Td Ts=8.2 - Td=8.3 2023-11-18 21:15:00
1 2018-08-31 14:00:00 Ts debe ser mayor o igual a Td Ts=9.0 - Td=9.1 2023-11-18 21:15:00
1 2018-09-01 10:00:00 Ts debe ser mayor o igual a Td Ts=7.0 - Td=7.1 2023-11-18 21:15:00
1 2019-04-22 13:00:00 Ts debe ser mayor o igual a Td Ts=7.6 - Td=7.7 2023-11-18 21:18:00
1 2019-04-23 13:00:00 Ts debe ser mayor o igual a Td Ts=8.7 - Td=8.8 2023-11-18 21:18:00
1 2019-04-25 09:00:00 Ts debe ser mayor o igual a Td Ts=8.2 - Td=8.3 2023-11-18 21:18:00
1 2019-04-25 12:00:00 Ts debe ser mayor o igual a Td Ts=9.0 - Td=9.1 2023-11-18 21:18:00
1 2019-05-05 02:00:00 Ts debe ser mayor o igual a Td Ts=13.7 - Td=13.8 2023-11-18 21:18:00
1 2019-05-08 08:00:00 Ts debe ser mayor o igual a Td Ts=9.3 - Td=9.4 2023-11-18 21:18:00
1 2019-05-08 11:00:00 Ts debe ser mayor o igual a Td Ts=9.1 - Td=9.2 2023-11-18 21:18:00
1 2019-05-08 13:00:00 Ts debe ser mayor o igual a Td Ts=9.1 - Td=9.2 2023-11-18 21:18:00
1 2019-05-08 14:00:00 Ts debe ser mayor o igual a Td Ts=8.9 - Td=9.0 2023-11-18 21:18:00
1 2019-05-10 03:00:00 Ts debe ser mayor o igual a Td Ts=7.4 - Td=7.5 2023-11-18 21:18:00
1 2019-05-10 04:00:00 Ts debe ser mayor o igual a Td Ts=5.7 - Td=5.8 2023-11-18 21:18:00
1 2019-05-12 11:00:00 Ts debe ser mayor o igual a Td Ts=7.5 - Td=7.6 2023-11-18 21:18:00
1 2019-05-12 12:00:00 Ts debe ser mayor o igual a Td Ts=8.3 - Td=8.4 2023-11-18 21:18:00
1 2019-05-14 15:00:00 Ts debe ser mayor o igual a Td Ts=8.2 - Td=8.3 2023-11-18 21:18:00
1 2019-05-15 13:00:00 Ts debe ser mayor o igual a Td Ts=8.9 - Td=9.0 2023-11-18 21:18:00
1 2019-05-16 09:00:00 Ts debe ser mayor o igual a Td Ts=9.1 - Td=9.2 2023-11-18 21:18:00
1 2019-05-18 05:00:00 Ts debe ser mayor o igual a Td Ts=7.5 - Td=7.6 2023-11-18 21:18:00
1 2019-05-18 08:00:00 Ts debe ser mayor o igual a Td Ts=7.2 - Td=7.3 2023-11-18 21:18:00
1 2019-05-27 13:00:00 Ts debe ser mayor o igual a Td Ts=8.1 - Td=8.2 2023-11-18 21:19:00
1 2019-06-04 10:00:00 Ts debe ser mayor o igual a Td Ts=5.7 - Td=5.8 2023-11-18 21:19:00
1 2019-06-07 16:00:00 Ts debe ser mayor o igual a Td Ts=7.1 - Td=7.2 2023-11-18 21:19:00
1 2019-06-08 08:00:00 Ts debe ser mayor o igual a Td Ts=5.6 - Td=5.7 2023-11-18 21:19:00
1 2019-06-09 13:00:00 Ts debe ser mayor o igual a Td Ts=5.6 - Td=5.7 2023-11-18 21:19:00
1 2019-06-09 16:00:00 Ts debe ser mayor o igual a Td Ts=7.1 - Td=7.2 2023-11-18 21:19:00
1 2019-06-14 02:00:00 Ts debe ser mayor o igual a Td Ts=7.8 - Td=7.9 2023-11-18 21:19:00
1 2019-06-14 08:00:00 Ts debe ser mayor o igual a Td Ts=7.7 - Td=7.8 2023-11-18 21:19:00
1 2019-06-14 10:00:00 Ts debe ser mayor o igual a Td Ts=7.8 - Td=7.9 2023-11-18 21:19:00
1 2019-06-14 11:00:00 Ts debe ser mayor o igual a Td Ts=8.2 - Td=8.3 2023-11-18 21:19:00
1 2019-06-16 00:00:00 Ts debe ser mayor o igual a Td Ts=5.6 - Td=5.7 2023-11-18 21:19:00
1 2019-06-21 08:00:00 Ts debe ser mayor o igual a Td Ts=7.3 - Td=7.4 2023-11-18 21:19:00
1 2019-06-24 12:00:00 Ts debe ser mayor o igual a Td Ts=7.8 - Td=7.9 2023-11-18 21:19:00
1 2019-06-25 18:00:00 Ts debe ser mayor o igual a Td Ts=4.8 - Td=4.9 2023-11-18 21:19:00
1 2019-07-03 11:00:00 Ts debe ser mayor o igual a Td Ts=4.8 - Td=4.9 2023-11-18 21:19:00
1 2019-07-04 07:00:00 Ts debe ser mayor o igual a Td Ts=8.1 - Td=8.2 2023-11-18 21:19:00
1 2019-07-12 02:00:00 Ts debe ser mayor o igual a Td Ts=7.2 - Td=7.3 2023-11-18 21:19:00
1 2019-07-12 03:00:00 Ts debe ser mayor o igual a Td Ts=7.5 - Td=7.6 2023-11-18 21:19:00
1 2019-07-18 07:00:00 Ts debe ser mayor o igual a Td Ts=7.5 - Td=7.6 2023-11-18 21:19:00
1 2019-07-28 08:00:00 Ts debe ser mayor o igual a Td Ts=7.0 - Td=7.1 2023-11-18 21:19:00
1 2019-07-30 12:00:00 Ts debe ser mayor o igual a Td Ts=7.7 - Td=7.8 2023-11-18 21:19:00
1 2019-07-31 06:00:00 Ts debe ser mayor o igual a Td Ts=8.2 - Td=8.3 2023-11-18 21:19:00
1 2019-08-06 10:00:00 Ts debe ser mayor o igual a Td Ts=7.4 - Td=7.5 2023-11-18 21:20:00
1 2019-08-06 12:00:00 Ts debe ser mayor o igual a Td Ts=7.6 - Td=7.7 2023-11-18 21:20:00
1 2019-08-22 10:00:00 Ts debe ser mayor o igual a Td Ts=8.2 - Td=8.3 2023-11-18 21:20:00
1 2019-08-22 12:00:00 Ts debe ser mayor o igual a Td Ts=7.5 - Td=7.6 2023-11-18 21:20:00
1 2019-08-23 13:00:00 Ts debe ser mayor o igual a Td Ts=8.2 - Td=8.3 2023-11-18 21:20:00
1 2019-08-27 09:00:00 Ts debe ser mayor o igual a Td Ts=10.6 - Td=10.7 2023-11-18 21:20:00
1 2019-08-27 13:00:00 Ts debe ser mayor o igual a Td Ts=10.4 - Td=10.5 2023-11-18 21:20:00
1 2019-08-28 08:00:00 Ts debe ser mayor o igual a Td Ts=9.0 - Td=9.1 2023-11-18 21:20:00
1 2019-08-28 11:00:00 Ts debe ser mayor o igual a Td Ts=8.7 - Td=8.8 2023-11-18 21:20:00
1 2019-08-28 13:00:00 Ts debe ser mayor o igual a Td Ts=10.8 - Td=10.9 2023-11-18 21:20:00
1 2019-09-08 04:00:00 Ts debe ser mayor o igual a Td Ts=6.9 - Td=7.0 2023-11-18 21:20:00
1 2019-09-08 07:00:00 Ts debe ser mayor o igual a Td Ts=7.3 - Td=7.4 2023-11-18 21:20:00
1 2019-09-08 12:00:00 Ts debe ser mayor o igual a Td Ts=7.2 - Td=7.3 2023-11-18 21:20:00
1 2019-09-08 13:00:00 Ts debe ser mayor o igual a Td Ts=8.7 - Td=8.8 2023-11-18 21:20:00
1 2019-10-01 07:00:00 HR (Humedad Relativa) es igual a 100% y Ts <> Td 1.2 - 0.4 2023-11-08 09:26:00
1 2019-10-01 08:00:00 Ts debe ser mayor o igual a Td Ts=0.4 - Td=0.6 2023-11-08 09:26:00
1 2019-10-01 08:00:00 HR (Humedad Relativa) es igual a 100% y Ts <> Td 0.4 - 0.6 2023-11-08 09:26:00
1 2019-10-01 09:00:00 HR (Humedad Relativa) es igual a 100% y Ts <> Td 0.6 - -0.5 2023-11-08 09:26:00
1 2019-10-01 11:00:00 Ts debe ser mayor o igual a Td Ts=-0.5 - Td=2.5 2023-11-08 09:26:00
1 2019-10-01 11:00:00 HR (Humedad Relativa) es igual a 100% y Ts <> Td -0.5 - 2.5 2023-11-08 09:26:00
1 2019-10-01 12:00:00 Ts debe ser mayor o igual a Td Ts=2.5 - Td=5.9 2023-11-08 09:26:00
1 2019-10-01 12:00:00 HR (Humedad Relativa) es igual a 100% y Ts <> Td 2.5 - 5.9 2023-11-08 09:26:00
1 2019-10-02 06:00:00 Ts debe ser mayor o igual a Td Ts=2.2 - Td=2.4 2023-11-08 09:26:00
1 2019-10-02 07:00:00 Ts debe ser mayor o igual a Td Ts=2.5 - Td=2.9 2023-11-08 09:26:00
1 2019-10-02 08:00:00 HR (Humedad Relativa) es igual a 100% y Ts <> Td 2.9 - 1.2 2023-11-08 09:26:00
1 2019-10-02 10:00:00 Ts debe ser mayor o igual a Td Ts=1.1 - Td=1.6 2023-11-08 09:26:00
1 2019-10-02 10:00:00 HR (Humedad Relativa) es igual a 100% y Ts <> Td 1.1 - 1.6 2023-11-08 09:26:00
1 2019-10-02 11:00:00 Ts debe ser mayor o igual a Td Ts=1.6 - Td=2.9 2023-11-08 09:26:00
1 2019-10-02 11:00:00 HR (Humedad Relativa) es igual a 100% y Ts <> Td 1.6 - 2.9 2023-11-08 09:26:00
1 2019-10-02 12:00:00 Ts debe ser mayor o igual a Td Ts=2.9 - Td=3.9 2023-11-08 09:26:00
1 2019-10-02 12:00:00 HR (Humedad Relativa) es igual a 100% y Ts <> Td 2.9 - 3.9 2023-11-08 09:26:00
1 2019-10-02 14:00:00 Ts debe ser mayor o igual a Td Ts=4.3 - Td=7.1 2023-11-08 09:26:00
1 2019-10-02 14:00:00 HR (Humedad Relativa) es igual a 100% y Ts <> Td 4.3 - 7.1 2023-11-08 09:26:00
1 2019-10-02 15:00:00 Ts debe ser mayor o igual a Td Ts=7.1 - Td=7.5 2023-11-08 09:26:00
1 2019-10-02 15:00:00 HR (Humedad Relativa) es igual a 100% y Ts <> Td 7.1 - 7.5 2023-11-08 09:26:00
1 2019-10-04 11:00:00 Ts debe ser mayor o igual a Td Ts=2.5 - Td=3.0 2023-11-08 09:26:00
1 2019-10-04 12:00:00 Ts debe ser mayor o igual a Td Ts=3.2 - Td=4.5 2023-11-08 09:26:00
1 2019-10-04 13:00:00 Ts debe ser mayor o igual a Td Ts=5.1 - Td=5.8 2023-11-08 09:26:00
1 2019-10-05 10:00:00 Ts debe ser mayor o igual a Td Ts=0.1 - Td=2.0 2023-11-08 09:26:00
1 2019-10-05 12:00:00 Ts debe ser mayor o igual a Td Ts=3.0 - Td=4.5 2023-11-08 09:26:00
1 2019-10-06 04:00:00 Ts debe ser mayor o igual a Td Ts=5.2 - Td=5.6 2023-11-08 09:26:00
1 2019-10-06 06:00:00 Ts debe ser mayor o igual a Td Ts=4.6 - Td=5.8 2023-11-08 09:26:00
1 2019-10-06 11:00:00 Ts debe ser mayor o igual a Td Ts=4.7 - Td=5.1 2023-11-08 09:26:00
1 2019-10-06 12:00:00 Ts debe ser mayor o igual a Td Ts=5.5 - Td=7.8 2023-11-08 09:26:00
1 2019-10-07 11:00:00 Ts debe ser mayor o igual a Td Ts=5.6 - Td=8.2 2023-11-08 09:26:00
1 2019-10-07 12:00:00 Ts debe ser mayor o igual a Td Ts=8.3 - Td=10.7 2023-11-08 09:26:00
1 2019-10-10 11:00:00 Ts debe ser mayor o igual a Td Ts=7.3 - Td=8.5 2023-11-08 09:26:00
1 2019-10-10 12:00:00 Ts debe ser mayor o igual a Td Ts=9.0 - Td=10.7 2023-11-08 09:26:00
1 2019-10-11 11:00:00 Ts debe ser mayor o igual a Td Ts=9.7 - Td=9.9 2023-11-08 09:26:00
1 2019-10-11 12:00:00 Ts debe ser mayor o igual a Td Ts=10.2 - Td=11.2 2023-11-08 09:26:00
1 2019-10-11 13:00:00 Ts debe ser mayor o igual a Td Ts=11.8 - Td=12.1 2023-11-08 09:26:00
1 2019-10-12 08:00:00 Ts debe ser mayor o igual a Td Ts=10.1 - Td=10.2 2023-11-08 09:26:00
1 2019-10-15 11:00:00 Ts debe ser mayor o igual a Td Ts=7.6 - Td=9.4 2023-11-08 09:26:00
1 2019-10-15 12:00:00 Ts debe ser mayor o igual a Td Ts=10.7 - Td=11.4 2023-11-08 09:26:00
1 2019-10-16 12:00:00 Ts debe ser mayor o igual a Td Ts=5.0 - Td=7.5 2023-11-08 09:26:00
1 2019-10-19 08:00:00 Ts debe ser mayor o igual a Td Ts=4.6 - Td=5.1 2023-11-08 09:26:00
1 2019-10-19 09:00:00 Ts debe ser mayor o igual a Td Ts=5.7 - Td=6.2 2023-11-08 09:26:00
1 2019-10-19 11:00:00 Ts debe ser mayor o igual a Td Ts=6.1 - Td=7.5 2023-11-08 09:26:00
1 2019-10-23 11:00:00 Ts debe ser mayor o igual a Td Ts=1.6 - Td=6.8 2023-11-08 09:26:00
1 2019-10-25 10:00:00 Ts debe ser mayor o igual a Td Ts=4.7 - Td=5.4 2023-11-08 09:26:00
1 2019-10-25 11:00:00 Ts debe ser mayor o igual a Td Ts=6.2 - Td=7.5 2023-11-08 09:26:00
1 2019-10-28 11:00:00 Ts debe ser mayor o igual a Td Ts=3.5 - Td=8.6 2023-11-08 09:27:00
1 2019-10-29 11:00:00 Ts debe ser mayor o igual a Td Ts=10.3 - Td=10.6 2023-11-08 09:27:00
1 2019-10-30 11:00:00 Ts debe ser mayor o igual a Td Ts=5.9 - Td=6.8 2023-11-08 09:27:00
1 2019-10-30 12:00:00 Ts debe ser mayor o igual a Td Ts=7.3 - Td=8.2 2023-11-08 09:27:00
1 2019-10-31 11:00:00 Ts debe ser mayor o igual a Td Ts=4.4 - Td=6.6 2023-11-08 09:27:00
1 2019-11-01 05:00:00 Ts debe ser mayor o igual a Td Ts=6.6 - Td=7.3 2023-11-08 09:27:00
1 2019-11-02 11:00:00 Ts debe ser mayor o igual a Td Ts=6.5 - Td=7.4 2023-11-08 09:27:00
1 2019-11-03 11:00:00 Ts debe ser mayor o igual a Td Ts=6.5 - Td=7.9 2023-11-08 09:27:00
1 2019-11-06 07:00:00 Ts debe ser mayor o igual a Td Ts=5.6 - Td=7.9 2023-11-08 09:27:00
1 2019-11-06 11:00:00 Ts debe ser mayor o igual a Td Ts=8.8 - Td=8.9 2023-11-08 09:27:00
1 2019-11-09 05:00:00 Ts debe ser mayor o igual a Td Ts=9.4 - Td=9.6 2023-11-08 09:27:00
1 2019-11-10 11:00:00 Ts debe ser mayor o igual a Td Ts=8.9 - Td=10.5 2023-11-08 09:27:00
1 2019-11-11 10:00:00 Ts debe ser mayor o igual a Td Ts=9.2 - Td=9.6 2023-11-08 09:27:00
1 2019-11-11 11:00:00 Ts debe ser mayor o igual a Td Ts=10.3 - Td=14.6 2023-11-08 09:27:00
1 2019-11-12 10:00:00 Ts debe ser mayor o igual a Td Ts=8.6 - Td=9.4 2023-11-08 09:27:00
1 2019-11-12 11:00:00 Ts debe ser mayor o igual a Td Ts=9.8 - Td=12.6 2023-11-08 09:27:00
1 2019-11-13 10:00:00 Ts debe ser mayor o igual a Td Ts=10.6 - Td=10.8 2023-11-08 09:27:00
1 2019-11-13 11:00:00 Ts debe ser mayor o igual a Td Ts=11.6 - Td=12.6 2023-11-08 09:27:00
1 2019-11-15 10:00:00 Ts debe ser mayor o igual a Td Ts=11.0 - Td=11.4 2023-11-08 09:27:00
1 2019-11-15 11:00:00 Ts debe ser mayor o igual a Td Ts=12.7 - Td=13.0 2023-11-08 09:27:00
1 2019-11-17 10:00:00 Ts debe ser mayor o igual a Td Ts=8.2 - Td=8.7 2023-11-08 09:27:00
1 2019-11-20 11:00:00 Ts debe ser mayor o igual a Td Ts=8.5 - Td=11.1 2023-11-08 09:27:00
1 2019-11-22 10:00:00 Ts debe ser mayor o igual a Td Ts=7.6 - Td=8.0 2023-11-08 09:27:00
1 2019-11-22 11:00:00 Ts debe ser mayor o igual a Td Ts=8.9 - Td=12.3 2023-11-08 09:27:00
1 2019-11-23 10:00:00 Ts debe ser mayor o igual a Td Ts=8.6 - Td=9.1 2023-11-08 09:27:00
1 2019-11-23 11:00:00 Ts debe ser mayor o igual a Td Ts=9.5 - Td=12.4 2023-11-08 09:27:00
1 2019-11-29 10:00:00 Ts debe ser mayor o igual a Td Ts=5.5 - Td=7.1 2023-11-08 09:27:00
1 2019-11-29 11:00:00 Ts debe ser mayor o igual a Td Ts=8.0 - Td=8.1 2023-11-08 09:27:00
1 2019-12-01 10:00:00 Ts debe ser mayor o igual a Td Ts=7.6 - Td=8.5 2023-11-08 09:27:00
1 2019-12-01 11:00:00 Ts debe ser mayor o igual a Td Ts=9.7 - Td=10.6 2023-11-08 09:27:00
1 2019-12-04 10:00:00 Ts debe ser mayor o igual a Td Ts=6.2 - Td=6.3 2023-11-08 09:27:00
1 2019-12-08 11:00:00 Ts debe ser mayor o igual a Td Ts=10.3 - Td=12.0 2023-11-08 09:27:00
1 2019-12-10 11:00:00 Ts debe ser mayor o igual a Td Ts=11.7 - Td=12.0 2023-11-08 09:27:00
1 2019-12-11 10:00:00 Ts debe ser mayor o igual a Td Ts=7.3 - Td=9.7 2023-11-08 09:27:00
1 2019-12-11 11:00:00 Ts debe ser mayor o igual a Td Ts=10.3 - Td=11.5 2023-11-08 09:27:00
1 2019-12-13 11:00:00 Ts debe ser mayor o igual a Td Ts=6.1 - Td=9.8 2023-11-08 09:27:00
Errores del Nivel 287
Nivel Fecha del Dato Descripción Información Error Fecha Ingreso
2 2024-06-08 00:00:00 Temperatura 17.2 del 07-06-2024 15:00, Mayor que la Máxima 15.8 08-06-2024 00:00 17.2 -- 15.8 2024-06-08 01:01:00
Errores del Nivel 1
Informe generado el 13-07-2024 03:47
Requerimiento: RE6001